sensor_id;sensor_type;location;lat;lon;timestamp;P1;durP1;ratioP1;P2;durP2;ratioP2
3653;SDS011;70277;54.302;10.064;2023-06-04T00:02:08;3.85;;;1.80;;
3653;SDS011;70277;54.302;10.064;2023-06-04T00:04:36;3.60;;;1.83;;
3653;SDS011;70277;54.302;10.064;2023-06-04T00:07:03;2.33;;;1.77;;
3653;SDS011;70277;54.302;10.064;2023-06-04T00:09:29;2.75;;;1.75;;
3653;SDS011;70277;54.302;10.064;2023-06-04T00:11:56;4.60;;;1.58;;
3653;SDS011;70277;54.302;10.064;2023-06-04T00:14:23;5.93;;;2.85;;
3653;SDS011;70277;54.302;10.064;2023-06-04T00:16:50;2.63;;;1.42;;
3653;SDS011;70277;54.302;10.064;2023-06-04T00:19:17;3.08;;;2.28;;
3653;SDS011;70277;54.302;10.064;2023-06-04T00:21:43;2.05;;;1.40;;
3653;SDS011;70277;54.302;10.064;2023-06-04T00:24:11;4.15;;;1.63;;
3653;SDS011;70277;54.302;10.064;2023-06-04T00:26:39;4.43;;;1.88;;
3653;SDS011;70277;54.302;10.064;2023-06-04T00:29:06;3.20;;;1.83;;
3653;SDS011;70277;54.302;10.064;2023-06-04T00:31:32;9.20;;;1.80;;
3653;SDS011;70277;54.302;10.064;2023-06-04T00:33:59;1.48;;;1.38;;
3653;SDS011;70277;54.302;10.064;2023-06-04T00:36:25;1.80;;;1.50;;
3653;SDS011;70277;54.302;10.064;2023-06-04T00:38:52;3.00;;;1.67;;
3653;SDS011;70277;54.302;10.064;2023-06-04T00:41:18;1.63;;;1.50;;
3653;SDS011;70277;54.302;10.064;2023-06-04T00:43:45;2.75;;;1.40;;
3653;SDS011;70277;54.302;10.064;2023-06-04T00:46:12;2.88;;;1.60;;
3653;SDS011;70277;54.302;10.064;2023-06-04T00:48:44;1.83;;;1.50;;
3653;SDS011;70277;54.302;10.064;2023-06-04T00:51:11;3.25;;;1.50;;
3653;SDS011;70277;54.302;10.064;2023-06-04T00:53:38;3.33;;;1.45;;
3653;SDS011;70277;54.302;10.064;2023-06-04T00:56:05;2.22;;;1.40;;
3653;SDS011;70277;54.302;10.064;2023-06-04T00:58:38;4.03;;;1.40;;
3653;SDS011;70277;54.302;10.064;2023-06-04T01:01:07;4.18;;;1.23;;
3653;SDS011;70277;54.302;10.064;2023-06-04T01:03:42;7.88;;;1.35;;
3653;SDS011;70277;54.302;10.064;2023-06-04T01:06:13;1.33;;;1.23;;
3653;SDS011;70277;54.302;10.064;2023-06-04T01:08:49;4.57;;;1.17;;
3653;SDS011;70277;54.302;10.064;2023-06-04T01:11:19;1.50;;;1.40;;
3653;SDS011;70277;54.302;10.064;2023-06-04T01:13:56;1.30;;;1.20;;
3653;SDS011;70277;54.302;10.064;2023-06-04T01:16:23;1.30;;;1.20;;
3653;SDS011;70277;54.302;10.064;2023-06-04T01:18:51;3.20;;;1.52;;
3653;SDS011;70277;54.302;10.064;2023-06-04T01:21:18;1.40;;;1.30;;
3653;SDS011;70277;54.302;10.064;2023-06-04T01:26:27;4.10;;;1.40;;
3653;SDS011;70277;54.302;10.064;2023-06-04T01:28:56;3.55;;;1.40;;
3653;SDS011;70277;54.302;10.064;2023-06-04T01:31:24;1.58;;;1.30;;
3653;SDS011;70277;54.302;10.064;2023-06-04T01:33:52;2.35;;;1.38;;
3653;SDS011;70277;54.302;10.064;2023-06-04T01:36:20;4.78;;;1.80;;
3653;SDS011;70277;54.302;10.064;2023-06-04T01:38:46;4.70;;;1.83;;
3653;SDS011;70277;54.302;10.064;2023-06-04T01:41:13;6.20;;;1.42;;
3653;SDS011;70277;54.302;10.064;2023-06-04T01:43:39;3.75;;;1.15;;
3653;SDS011;70277;54.302;10.064;2023-06-04T01:46:06;4.50;;;1.35;;
3653;SDS011;70277;54.302;10.064;2023-06-04T01:48:33;2.22;;;1.48;;
3653;SDS011;70277;54.302;10.064;2023-06-04T01:50:59;1.20;;;1.20;;
3653;SDS011;70277;54.302;10.064;2023-06-04T01:53:26;6.13;;;2.03;;
3653;SDS011;70277;54.302;10.064;2023-06-04T01:55:53;1.40;;;1.30;;
3653;SDS011;70277;54.302;10.064;2023-06-04T01:58:20;1.70;;;1.40;;
3653;SDS011;70277;54.302;10.064;2023-06-04T02:00:53;3.10;;;1.50;;
3653;SDS011;70277;54.302;10.064;2023-06-04T02:03:21;3.13;;;1.40;;
3653;SDS011;70277;54.302;10.064;2023-06-04T02:05:49;3.08;;;1.13;;
3653;SDS011;70277;54.302;10.064;2023-06-04T02:08:15;4.50;;;1.42;;
3653;SDS011;70277;54.302;10.064;2023-06-04T02:10:48;2.33;;;1.52;;
3653;SDS011;70277;54.302;10.064;2023-06-04T02:13:15;3.60;;;1.70;;
3653;SDS011;70277;54.302;10.064;2023-06-04T02:15:41;4.38;;;1.50;;
3653;SDS011;70277;54.302;10.064;2023-06-04T02:18:12;4.47;;;1.52;;
3653;SDS011;70277;54.302;10.064;2023-06-04T02:20:42;2.13;;;1.40;;
3653;SDS011;70277;54.302;10.064;2023-06-04T02:23:10;2.42;;;1.40;;
3653;SDS011;70277;54.302;10.064;2023-06-04T02:25:38;4.75;;;1.45;;
3653;SDS011;70277;54.302;10.064;2023-06-04T02:28:06;2.83;;;1.52;;
3653;SDS011;70277;54.302;10.064;2023-06-04T02:30:32;2.33;;;1.52;;
3653;SDS011;70277;54.302;10.064;2023-06-04T02:32:59;4.20;;;2.05;;
3653;SDS011;70277;54.302;10.064;2023-06-04T02:35:27;7.28;;;1.90;;
3653;SDS011;70277;54.302;10.064;2023-06-04T02:37:54;8.30;;;2.15;;
3653;SDS011;70277;54.302;10.064;2023-06-04T02:40:22;3.22;;;1.55;;
3653;SDS011;70277;54.302;10.064;2023-06-04T02:42:49;2.38;;;1.38;;
3653;SDS011;70277;54.302;10.064;2023-06-04T02:45:15;2.03;;;1.50;;
3653;SDS011;70277;54.302;10.064;2023-06-04T02:47:42;6.45;;;1.25;;
3653;SDS011;70277;54.302;10.064;2023-06-04T02:50:08;4.32;;;1.67;;
3653;SDS011;70277;54.302;10.064;2023-06-04T02:52:35;1.50;;;1.40;;
3653;SDS011;70277;54.302;10.064;2023-06-04T02:55:03;2.10;;;1.55;;
3653;SDS011;70277;54.302;10.064;2023-06-04T02:57:31;2.53;;;1.52;;
3653;SDS011;70277;54.302;10.064;2023-06-04T02:59:57;3.80;;;2.13;;
3653;SDS011;70277;54.302;10.064;2023-06-04T03:02:24;3.47;;;2.10;;
3653;SDS011;70277;54.302;10.064;2023-06-04T03:04:51;3.25;;;2.40;;
3653;SDS011;70277;54.302;10.064;2023-06-04T03:07:18;3.63;;;1.83;;
3653;SDS011;70277;54.302;10.064;2023-06-04T03:09:49;5.57;;;1.83;;
3653;SDS011;70277;54.302;10.064;2023-06-04T03:12:15;9.35;;;1.95;;
3653;SDS011;70277;54.302;10.064;2023-06-04T03:14:42;5.22;;;1.90;;
3653;SDS011;70277;54.302;10.064;2023-06-04T03:17:09;2.58;;;1.98;;
3653;SDS011;70277;54.302;10.064;2023-06-04T03:19:39;4.13;;;1.67;;
3653;SDS011;70277;54.302;10.064;2023-06-04T03:22:08;5.28;;;1.60;;
3653;SDS011;70277;54.302;10.064;2023-06-04T03:24:35;2.88;;;1.90;;
3653;SDS011;70277;54.302;10.064;2023-06-04T03:27:06;4.25;;;2.20;;
3653;SDS011;70277;54.302;10.064;2023-06-04T03:29:34;8.82;;;2.65;;
3653;SDS011;70277;54.302;10.064;2023-06-04T03:32:01;5.50;;;2.50;;
3653;SDS011;70277;54.302;10.064;2023-06-04T03:34:28;8.75;;;2.85;;
3653;SDS011;70277;54.302;10.064;2023-06-04T03:37:00;4.35;;;2.60;;
3653;SDS011;70277;54.302;10.064;2023-06-04T03:39:27;5.68;;;2.55;;
3653;SDS011;70277;54.302;10.064;2023-06-04T03:41:53;7.10;;;2.75;;
3653;SDS011;70277;54.302;10.064;2023-06-04T03:44:21;5.60;;;2.67;;
3653;SDS011;70277;54.302;10.064;2023-06-04T03:46:48;5.95;;;2.30;;
3653;SDS011;70277;54.302;10.064;2023-06-04T03:49:14;6.97;;;2.95;;
3653;SDS011;70277;54.302;10.064;2023-06-04T03:51:43;4.50;;;2.28;;
3653;SDS011;70277;54.302;10.064;2023-06-04T03:54:10;4.57;;;2.60;;
3653;SDS011;70277;54.302;10.064;2023-06-04T03:56:37;4.97;;;2.95;;
3653;SDS011;70277;54.302;10.064;2023-06-04T03:59:04;4.75;;;3.00;;
3653;SDS011;70277;54.302;10.064;2023-06-04T04:01:30;4.93;;;2.30;;
3653;SDS011;70277;54.302;10.064;2023-06-04T04:03:57;5.63;;;2.80;;
3653;SDS011;70277;54.302;10.064;2023-06-04T04:06:24;11.55;;;2.92;;
3653;SDS011;70277;54.302;10.064;2023-06-04T04:08:50;9.45;;;3.03;;
3653;SDS011;70277;54.302;10.064;2023-06-04T04:11:16;12.95;;;3.50;;
3653;SDS011;70277;54.302;10.064;2023-06-04T04:13:46;9.63;;;2.95;;
3653;SDS011;70277;54.302;10.064;2023-06-04T04:16:13;5.95;;;2.60;;
3653;SDS011;70277;54.302;10.064;2023-06-04T04:18:41;5.03;;;2.78;;
3653;SDS011;70277;54.302;10.064;2023-06-04T04:21:09;4.03;;;2.42;;
3653;SDS011;70277;54.302;10.064;2023-06-04T04:23:37;6.63;;;2.65;;
3653;SDS011;70277;54.302;10.064;2023-06-04T04:26:07;8.63;;;3.00;;
3653;SDS011;70277;54.302;10.064;2023-06-04T04:28:34;3.58;;;2.30;;
3653;SDS011;70277;54.302;10.064;2023-06-04T04:31:00;8.48;;;2.40;;
3653;SDS011;70277;54.302;10.064;2023-06-04T04:33:28;10.73;;;2.92;;
3653;SDS011;70277;54.302;10.064;2023-06-04T04:35:59;6.13;;;1.92;;
3653;SDS011;70277;54.302;10.064;2023-06-04T04:38:26;7.60;;;2.80;;
3653;SDS011;70277;54.302;10.064;2023-06-04T04:40:54;8.38;;;2.70;;
3653;SDS011;70277;54.302;10.064;2023-06-04T04:43:28;9.95;;;2.63;;
3653;SDS011;70277;54.302;10.064;2023-06-04T04:45:58;8.90;;;2.92;;
3653;SDS011;70277;54.302;10.064;2023-06-04T04:48:25;6.68;;;2.60;;
3653;SDS011;70277;54.302;10.064;2023-06-04T04:50:52;8.90;;;2.63;;
3653;SDS011;70277;54.302;10.064;2023-06-04T04:53:19;11.55;;;2.60;;
3653;SDS011;70277;54.302;10.064;2023-06-04T04:55:46;6.82;;;2.65;;
3653;SDS011;70277;54.302;10.064;2023-06-04T04:58:12;15.60;;;3.80;;
3653;SDS011;70277;54.302;10.064;2023-06-04T05:00:39;7.72;;;2.88;;
3653;SDS011;70277;54.302;10.064;2023-06-04T05:03:06;8.52;;;2.88;;
3653;SDS011;70277;54.302;10.064;2023-06-04T05:05:33;8.57;;;2.40;;
3653;SDS011;70277;54.302;10.064;2023-06-04T05:07:59;12.70;;;2.30;;
3653;SDS011;70277;54.302;10.064;2023-06-04T05:10:26;10.80;;;2.38;;
3653;SDS011;70277;54.302;10.064;2023-06-04T05:12:52;16.55;;;3.00;;
3653;SDS011;70277;54.302;10.064;2023-06-04T05:15:20;7.07;;;2.40;;
3653;SDS011;70277;54.302;10.064;2023-06-04T05:17:46;9.82;;;2.60;;
3653;SDS011;70277;54.302;10.064;2023-06-04T05:20:13;9.73;;;2.50;;
3653;SDS011;70277;54.302;10.064;2023-06-04T05:22:41;10.18;;;2.63;;
3653;SDS011;70277;54.302;10.064;2023-06-04T05:25:09;11.07;;;2.58;;
3653;SDS011;70277;54.302;10.064;2023-06-04T05:27:36;14.68;;;2.75;;
3653;SDS011;70277;54.302;10.064;2023-06-04T05:30:03;10.27;;;2.75;;
3653;SDS011;70277;54.302;10.064;2023-06-04T05:32:30;14.30;;;2.65;;
3653;SDS011;70277;54.302;10.064;2023-06-04T05:34:58;11.85;;;2.55;;
3653;SDS011;70277;54.302;10.064;2023-06-04T05:37:25;11.82;;;3.33;;
3653;SDS011;70277;54.302;10.064;2023-06-04T05:39:55;10.90;;;2.70;;
3653;SDS011;70277;54.302;10.064;2023-06-04T05:42:23;10.15;;;2.72;;
3653;SDS011;70277;54.302;10.064;2023-06-04T05:44:50;10.68;;;3.05;;
3653;SDS011;70277;54.302;10.064;2023-06-04T05:47:16;10.65;;;2.70;;
3653;SDS011;70277;54.302;10.064;2023-06-04T05:49:44;9.13;;;2.45;;
3653;SDS011;70277;54.302;10.064;2023-06-04T05:52:11;13.40;;;2.53;;
3653;SDS011;70277;54.302;10.064;2023-06-04T05:54:37;13.30;;;2.78;;
3653;SDS011;70277;54.302;10.064;2023-06-04T05:57:04;10.80;;;2.90;;
3653;SDS011;70277;54.302;10.064;2023-06-04T05:59:31;7.70;;;2.67;;
3653;SDS011;70277;54.302;10.064;2023-06-04T06:01:58;9.13;;;2.60;;
3653;SDS011;70277;54.302;10.064;2023-06-04T06:04:25;9.65;;;2.63;;
3653;SDS011;70277;54.302;10.064;2023-06-04T06:06:52;12.43;;;2.85;;
3653;SDS011;70277;54.302;10.064;2023-06-04T06:09:19;9.20;;;2.80;;
3653;SDS011;70277;54.302;10.064;2023-06-04T06:11:45;7.18;;;2.30;;
3653;SDS011;70277;54.302;10.064;2023-06-04T06:14:12;14.30;;;3.40;;
3653;SDS011;70277;54.302;10.064;2023-06-04T06:16:39;9.55;;;2.40;;
3653;SDS011;70277;54.302;10.064;2023-06-04T06:19:06;13.93;;;3.20;;
3653;SDS011;70277;54.302;10.064;2023-06-04T06:21:33;14.00;;;2.78;;
3653;SDS011;70277;54.302;10.064;2023-06-04T06:23:59;9.73;;;2.40;;
3653;SDS011;70277;54.302;10.064;2023-06-04T06:26:26;9.77;;;3.15;;
3653;SDS011;70277;54.302;10.064;2023-06-04T06:28:52;11.88;;;2.08;;
3653;SDS011;70277;54.302;10.064;2023-06-04T06:31:19;9.40;;;2.83;;
3653;SDS011;70277;54.302;10.064;2023-06-04T06:33:46;11.35;;;2.85;;
3653;SDS011;70277;54.302;10.064;2023-06-04T06:36:13;10.98;;;2.38;;
3653;SDS011;70277;54.302;10.064;2023-06-04T06:38:39;8.85;;;2.15;;
3653;SDS011;70277;54.302;10.064;2023-06-04T06:41:06;11.50;;;2.60;;
3653;SDS011;70277;54.302;10.064;2023-06-04T06:43:33;13.25;;;2.67;;
3653;SDS011;70277;54.302;10.064;2023-06-04T06:46:00;10.13;;;2.92;;
3653;SDS011;70277;54.302;10.064;2023-06-04T06:48:26;10.48;;;2.33;;
3653;SDS011;70277;54.302;10.064;2023-06-04T06:50:53;7.97;;;2.17;;
3653;SDS011;70277;54.302;10.064;2023-06-04T06:53:20;4.95;;;1.70;;
3653;SDS011;70277;54.302;10.064;2023-06-04T06:55:47;9.93;;;2.22;;
3653;SDS011;70277;54.302;10.064;2023-06-04T06:58:13;10.18;;;1.70;;
3653;SDS011;70277;54.302;10.064;2023-06-04T07:00:39;9.82;;;2.22;;
3653;SDS011;70277;54.302;10.064;2023-06-04T07:03:06;6.40;;;2.10;;
3653;SDS011;70277;54.302;10.064;2023-06-04T07:05:34;10.55;;;2.20;;
3653;SDS011;70277;54.302;10.064;2023-06-04T07:08:01;9.38;;;2.80;;
3653;SDS011;70277;54.302;10.064;2023-06-04T07:10:29;6.97;;;2.30;;
3653;SDS011;70277;54.302;10.064;2023-06-04T07:12:56;11.18;;;2.63;;
3653;SDS011;70277;54.302;10.064;2023-06-04T07:15:22;7.32;;;2.25;;
3653;SDS011;70277;54.302;10.064;2023-06-04T07:17:49;7.30;;;2.25;;
3653;SDS011;70277;54.302;10.064;2023-06-04T07:20:16;12.57;;;2.40;;
3653;SDS011;70277;54.302;10.064;2023-06-04T07:22:42;11.30;;;2.15;;
3653;SDS011;70277;54.302;10.064;2023-06-04T07:25:09;8.45;;;1.85;;
3653;SDS011;70277;54.302;10.064;2023-06-04T07:27:35;9.48;;;2.55;;
3653;SDS011;70277;54.302;10.064;2023-06-04T07:30:02;7.72;;;2.28;;
3653;SDS011;70277;54.302;10.064;2023-06-04T07:32:29;9.48;;;2.03;;
3653;SDS011;70277;54.302;10.064;2023-06-04T07:34:56;9.15;;;2.50;;
3653;SDS011;70277;54.302;10.064;2023-06-04T07:37:22;6.82;;;2.25;;
3653;SDS011;70277;54.302;10.064;2023-06-04T07:39:49;8.23;;;2.17;;
3653;SDS011;70277;54.302;10.064;2023-06-04T07:42:15;8.88;;;2.08;;
3653;SDS011;70277;54.302;10.064;2023-06-04T07:44:42;11.38;;;1.88;;
3653;SDS011;70277;54.302;10.064;2023-06-04T07:47:08;7.97;;;2.05;;
3653;SDS011;70277;54.302;10.064;2023-06-04T07:49:35;8.73;;;2.10;;
3653;SDS011;70277;54.302;10.064;2023-06-04T07:52:16;3.47;;;2.00;;
3653;SDS011;70277;54.302;10.064;2023-06-04T07:54:42;4.53;;;2.05;;
3653;SDS011;70277;54.302;10.064;2023-06-04T07:57:09;11.45;;;2.42;;
3653;SDS011;70277;54.302;10.064;2023-06-04T07:59:36;4.85;;;1.80;;
3653;SDS011;70277;54.302;10.064;2023-06-04T08:02:02;4.10;;;1.73;;
3653;SDS011;70277;54.302;10.064;2023-06-04T08:04:29;7.22;;;1.88;;
3653;SDS011;70277;54.302;10.064;2023-06-04T08:06:56;6.75;;;1.80;;
3653;SDS011;70277;54.302;10.064;2023-06-04T08:09:23;6.55;;;2.00;;
3653;SDS011;70277;54.302;10.064;2023-06-04T08:11:49;6.35;;;2.05;;
3653;SDS011;70277;54.302;10.064;2023-06-04T08:14:16;8.23;;;1.90;;
3653;SDS011;70277;54.302;10.064;2023-06-04T08:16:42;5.93;;;2.15;;
3653;SDS011;70277;54.302;10.064;2023-06-04T08:19:09;7.47;;;2.22;;
3653;SDS011;70277;54.302;10.064;2023-06-04T08:21:36;9.38;;;2.03;;
3653;SDS011;70277;54.302;10.064;2023-06-04T08:24:03;7.05;;;2.03;;
3653;SDS011;70277;54.302;10.064;2023-06-04T08:26:29;5.78;;;2.15;;
3653;SDS011;70277;54.302;10.064;2023-06-04T08:28:56;5.20;;;1.73;;
3653;SDS011;70277;54.302;10.064;2023-06-04T08:31:23;8.43;;;1.95;;
3653;SDS011;70277;54.302;10.064;2023-06-04T08:33:49;7.18;;;2.17;;
3653;SDS011;70277;54.302;10.064;2023-06-04T08:36:16;4.53;;;1.75;;
3653;SDS011;70277;54.302;10.064;2023-06-04T08:38:43;9.75;;;1.90;;
3653;SDS011;70277;54.302;10.064;2023-06-04T08:43:47;4.82;;;1.90;;
3653;SDS011;70277;54.302;10.064;2023-06-04T08:46:15;6.88;;;1.80;;
3653;SDS011;70277;54.302;10.064;2023-06-04T08:48:44;5.93;;;1.92;;
3653;SDS011;70277;54.302;10.064;2023-06-04T08:51:10;4.50;;;1.67;;
3653;SDS011;70277;54.302;10.064;2023-06-04T08:53:37;8.10;;;2.15;;
3653;SDS011;70277;54.302;10.064;2023-06-04T08:56:04;8.23;;;2.00;;
3653;SDS011;70277;54.302;10.064;2023-06-04T08:58:31;5.80;;;1.90;;
3653;SDS011;70277;54.302;10.064;2023-06-04T09:01:00;6.28;;;2.05;;
3653;SDS011;70277;54.302;10.064;2023-06-04T09:03:28;10.10;;;2.10;;
3653;SDS011;70277;54.302;10.064;2023-06-04T09:05:59;9.07;;;1.83;;
3653;SDS011;70277;54.302;10.064;2023-06-04T09:08:26;7.95;;;2.00;;
3653;SDS011;70277;54.302;10.064;2023-06-04T09:10:57;3.22;;;1.42;;
3653;SDS011;70277;54.302;10.064;2023-06-04T09:13:27;3.88;;;1.90;;
3653;SDS011;70277;54.302;10.064;2023-06-04T09:16:00;2.47;;;1.50;;
3653;SDS011;70277;54.302;10.064;2023-06-04T09:18:27;5.60;;;1.65;;
3653;SDS011;70277;54.302;10.064;2023-06-04T09:21:04;3.20;;;1.77;;
3653;SDS011;70277;54.302;10.064;2023-06-04T09:23:36;6.18;;;2.10;;
3653;SDS011;70277;54.302;10.064;2023-06-04T09:26:11;9.48;;;2.65;;
3653;SDS011;70277;54.302;10.064;2023-06-04T09:28:41;4.20;;;1.60;;
3653;SDS011;70277;54.302;10.064;2023-06-04T09:31:17;4.80;;;2.05;;
3653;SDS011;70277;54.302;10.064;2023-06-04T09:33:44;5.60;;;2.22;;
3653;SDS011;70277;54.302;10.064;2023-06-04T09:36:12;5.85;;;2.17;;
3653;SDS011;70277;54.302;10.064;2023-06-04T09:38:38;6.45;;;2.13;;
3653;SDS011;70277;54.302;10.064;2023-06-04T09:41:10;9.65;;;2.13;;
3653;SDS011;70277;54.302;10.064;2023-06-04T09:43:41;6.57;;;2.22;;
3653;SDS011;70277;54.302;10.064;2023-06-04T09:46:08;5.47;;;1.85;;
3653;SDS011;70277;54.302;10.064;2023-06-04T09:48:39;6.20;;;1.88;;
3653;SDS011;70277;54.302;10.064;2023-06-04T09:51:10;5.63;;;2.20;;
3653;SDS011;70277;54.302;10.064;2023-06-04T09:53:37;5.70;;;2.42;;
3653;SDS011;70277;54.302;10.064;2023-06-04T09:56:04;6.10;;;2.30;;
3653;SDS011;70277;54.302;10.064;2023-06-04T09:58:37;4.70;;;1.95;;
3653;SDS011;70277;54.302;10.064;2023-06-04T10:01:06;5.88;;;1.98;;
3653;SDS011;70277;54.302;10.064;2023-06-04T10:03:34;3.75;;;1.90;;
3653;SDS011;70277;54.302;10.064;2023-06-04T10:06:03;12.90;;;2.30;;
3653;SDS011;70277;54.302;10.064;2023-06-04T10:08:31;6.05;;;2.08;;
3653;SDS011;70277;54.302;10.064;2023-06-04T10:11:00;6.65;;;1.80;;
3653;SDS011;70277;54.302;10.064;2023-06-04T10:13:29;6.47;;;2.40;;
3653;SDS011;70277;54.302;10.064;2023-06-04T10:15:58;2.63;;;1.33;;
3653;SDS011;70277;54.302;10.064;2023-06-04T10:18:28;5.53;;;1.65;;
3653;SDS011;70277;54.302;10.064;2023-06-04T10:20:55;6.97;;;1.60;;
3653;SDS011;70277;54.302;10.064;2023-06-04T10:23:22;8.10;;;2.17;;
3653;SDS011;70277;54.302;10.064;2023-06-04T10:25:50;6.97;;;1.80;;
3653;SDS011;70277;54.302;10.064;2023-06-04T10:28:19;8.90;;;2.40;;
3653;SDS011;70277;54.302;10.064;2023-06-04T10:30:47;5.72;;;1.98;;
3653;SDS011;70277;54.302;10.064;2023-06-04T10:33:17;3.92;;;2.05;;
3653;SDS011;70277;54.302;10.064;2023-06-04T10:35:53;5.57;;;2.13;;
3653;SDS011;70277;54.302;10.064;2023-06-04T10:38:23;9.13;;;2.10;;
3653;SDS011;70277;54.302;10.064;2023-06-04T10:40:50;5.68;;;2.30;;
3653;SDS011;70277;54.302;10.064;2023-06-04T10:43:17;4.95;;;2.28;;
3653;SDS011;70277;54.302;10.064;2023-06-04T10:45:44;5.53;;;2.05;;
3653;SDS011;70277;54.302;10.064;2023-06-04T10:48:12;7.07;;;2.28;;
3653;SDS011;70277;54.302;10.064;2023-06-04T10:50:50;4.78;;;2.20;;
3653;SDS011;70277;54.302;10.064;2023-06-04T10:53:18;12.25;;;2.80;;
3653;SDS011;70277;54.302;10.064;2023-06-04T10:55:49;7.95;;;2.25;;
3653;SDS011;70277;54.302;10.064;2023-06-04T10:58:16;5.95;;;1.80;;
3653;SDS011;70277;54.302;10.064;2023-06-04T11:00:44;4.47;;;2.17;;
3653;SDS011;70277;54.302;10.064;2023-06-04T11:03:12;5.55;;;2.05;;
3653;SDS011;70277;54.302;10.064;2023-06-04T11:05:40;10.95;;;2.10;;
3653;SDS011;70277;54.302;10.064;2023-06-04T11:08:08;4.13;;;2.22;;
3653;SDS011;70277;54.302;10.064;2023-06-04T11:10:45;4.53;;;2.35;;
3653;SDS011;70277;54.302;10.064;2023-06-04T11:13:12;5.18;;;2.35;;
3653;SDS011;70277;54.302;10.064;2023-06-04T11:15:39;5.03;;;1.95;;
3653;SDS011;70277;54.302;10.064;2023-06-04T11:18:18;5.63;;;2.00;;
3653;SDS011;70277;54.302;10.064;2023-06-04T11:20:50;8.45;;;2.30;;
3653;SDS011;70277;54.302;10.064;2023-06-04T11:23:24;7.20;;;2.10;;
3653;SDS011;70277;54.302;10.064;2023-06-04T11:25:54;6.30;;;2.30;;
3653;SDS011;70277;54.302;10.064;2023-06-04T11:28:21;5.95;;;2.08;;
3653;SDS011;70277;54.302;10.064;2023-06-04T11:31:01;4.78;;;2.35;;
3653;SDS011;70277;54.302;10.064;2023-06-04T11:33:29;6.72;;;2.17;;
3653;SDS011;70277;54.302;10.064;2023-06-04T11:35:56;14.75;;;2.22;;
3653;SDS011;70277;54.302;10.064;2023-06-04T11:38:23;6.97;;;1.98;;
3653;SDS011;70277;54.302;10.064;2023-06-04T11:40:56;5.95;;;2.33;;
3653;SDS011;70277;54.302;10.064;2023-06-04T11:43:24;9.15;;;2.42;;
3653;SDS011;70277;54.302;10.064;2023-06-04T11:45:51;4.70;;;2.13;;
3653;SDS011;70277;54.302;10.064;2023-06-04T11:48:17;6.82;;;2.35;;
3653;SDS011;70277;54.302;10.064;2023-06-04T11:50:44;4.85;;;2.17;;
3653;SDS011;70277;54.302;10.064;2023-06-04T11:53:12;7.60;;;1.85;;
3653;SDS011;70277;54.302;10.064;2023-06-04T11:55:39;5.55;;;2.00;;
3653;SDS011;70277;54.302;10.064;2023-06-04T11:58:06;7.20;;;2.38;;
3653;SDS011;70277;54.302;10.064;2023-06-04T12:00:32;4.55;;;2.28;;
3653;SDS011;70277;54.302;10.064;2023-06-04T12:02:59;7.38;;;2.13;;
3653;SDS011;70277;54.302;10.064;2023-06-04T12:05:29;7.18;;;1.95;;
3653;SDS011;70277;54.302;10.064;2023-06-04T12:08:06;4.72;;;2.05;;
3653;SDS011;70277;54.302;10.064;2023-06-04T12:10:39;6.95;;;2.28;;
3653;SDS011;70277;54.302;10.064;2023-06-04T12:13:07;9.07;;;2.50;;
3653;SDS011;70277;54.302;10.064;2023-06-04T12:15:34;7.18;;;2.15;;
3653;SDS011;70277;54.302;10.064;2023-06-04T12:18:01;5.75;;;2.00;;
3653;SDS011;70277;54.302;10.064;2023-06-04T12:20:34;11.68;;;1.88;;
3653;SDS011;70277;54.302;10.064;2023-06-04T12:23:04;7.07;;;1.98;;
3653;SDS011;70277;54.302;10.064;2023-06-04T12:25:32;6.30;;;2.25;;
3653;SDS011;70277;54.302;10.064;2023-06-04T12:28:00;8.80;;;2.28;;
3653;SDS011;70277;54.302;10.064;2023-06-04T12:30:40;4.93;;;2.00;;
3653;SDS011;70277;54.302;10.064;2023-06-04T12:33:07;5.97;;;2.17;;
3653;SDS011;70277;54.302;10.064;2023-06-04T12:35:33;2.58;;;1.83;;
3653;SDS011;70277;54.302;10.064;2023-06-04T12:38:02;7.22;;;2.08;;
3653;SDS011;70277;54.302;10.064;2023-06-04T12:40:32;10.07;;;2.08;;
3653;SDS011;70277;54.302;10.064;2023-06-04T12:42:58;11.50;;;1.92;;
3653;SDS011;70277;54.302;10.064;2023-06-04T12:45:25;3.50;;;1.77;;
3653;SDS011;70277;54.302;10.064;2023-06-04T12:47:51;6.72;;;2.00;;
3653;SDS011;70277;54.302;10.064;2023-06-04T12:50:18;4.20;;;1.80;;
3653;SDS011;70277;54.302;10.064;2023-06-04T12:52:47;8.15;;;2.00;;
3653;SDS011;70277;54.302;10.064;2023-06-04T12:55:14;5.53;;;2.08;;
3653;SDS011;70277;54.302;10.064;2023-06-04T12:57:40;7.28;;;2.10;;
3653;SDS011;70277;54.302;10.064;2023-06-04T13:00:08;8.30;;;2.47;;
3653;SDS011;70277;54.302;10.064;2023-06-04T13:02:35;5.10;;;2.08;;
3653;SDS011;70277;54.302;10.064;2023-06-04T13:05:01;6.68;;;2.17;;
3653;SDS011;70277;54.302;10.064;2023-06-04T13:07:28;5.95;;;2.20;;
3653;SDS011;70277;54.302;10.064;2023-06-04T13:09:55;3.92;;;2.00;;
3653;SDS011;70277;54.302;10.064;2023-06-04T13:12:21;6.82;;;2.25;;
3653;SDS011;70277;54.302;10.064;2023-06-04T13:14:48;8.23;;;2.17;;
3653;SDS011;70277;54.302;10.064;2023-06-04T13:17:14;5.43;;;2.15;;
3653;SDS011;70277;54.302;10.064;2023-06-04T13:19:48;5.22;;;2.25;;
3653;SDS011;70277;54.302;10.064;2023-06-04T13:22:15;9.48;;;2.05;;
3653;SDS011;70277;54.302;10.064;2023-06-04T13:24:41;6.38;;;1.70;;
3653;SDS011;70277;54.302;10.064;2023-06-04T13:27:08;4.57;;;1.88;;
3653;SDS011;70277;54.302;10.064;2023-06-04T13:29:34;5.25;;;1.88;;
3653;SDS011;70277;54.302;10.064;2023-06-04T13:32:01;9.55;;;2.22;;
3653;SDS011;70277;54.302;10.064;2023-06-04T13:34:27;5.47;;;2.10;;
3653;SDS011;70277;54.302;10.064;2023-06-04T13:36:54;5.97;;;1.98;;
3653;SDS011;70277;54.302;10.064;2023-06-04T13:39:21;5.72;;;2.03;;
3653;SDS011;70277;54.302;10.064;2023-06-04T13:41:47;6.32;;;2.00;;
3653;SDS011;70277;54.302;10.064;2023-06-04T13:44:14;5.57;;;1.90;;
3653;SDS011;70277;54.302;10.064;2023-06-04T13:46:41;6.18;;;2.25;;
3653;SDS011;70277;54.302;10.064;2023-06-04T13:49:08;4.43;;;1.80;;
3653;SDS011;70277;54.302;10.064;2023-06-04T13:51:34;8.13;;;2.03;;
3653;SDS011;70277;54.302;10.064;2023-06-04T13:54:00;7.10;;;2.22;;
3653;SDS011;70277;54.302;10.064;2023-06-04T13:56:27;6.88;;;1.63;;
3653;SDS011;70277;54.302;10.064;2023-06-04T13:58:53;4.55;;;2.03;;
3653;SDS011;70277;54.302;10.064;2023-06-04T14:01:20;5.40;;;1.98;;
3653;SDS011;70277;54.302;10.064;2023-06-04T14:03:46;6.60;;;1.70;;
3653;SDS011;70277;54.302;10.064;2023-06-04T14:06:13;5.75;;;1.92;;
3653;SDS011;70277;54.302;10.064;2023-06-04T14:08:40;3.22;;;1.60;;
3653;SDS011;70277;54.302;10.064;2023-06-04T14:11:06;6.05;;;1.95;;
3653;SDS011;70277;54.302;10.064;2023-06-04T14:13:33;5.97;;;1.90;;
3653;SDS011;70277;54.302;10.064;2023-06-04T14:16:00;7.50;;;2.30;;
3653;SDS011;70277;54.302;10.064;2023-06-04T14:18:26;7.40;;;2.13;;
3653;SDS011;70277;54.302;10.064;2023-06-04T14:20:53;4.85;;;2.03;;
3653;SDS011;70277;54.302;10.064;2023-06-04T14:23:19;7.13;;;2.08;;
3653;SDS011;70277;54.302;10.064;2023-06-04T14:25:46;5.88;;;2.00;;
3653;SDS011;70277;54.302;10.064;2023-06-04T14:28:12;6.65;;;2.13;;
3653;SDS011;70277;54.302;10.064;2023-06-04T14:30:39;7.40;;;1.92;;
3653;SDS011;70277;54.302;10.064;2023-06-04T14:33:06;5.25;;;2.20;;
3653;SDS011;70277;54.302;10.064;2023-06-04T14:35:33;5.47;;;1.95;;
3653;SDS011;70277;54.302;10.064;2023-06-04T14:37:59;4.95;;;1.90;;
3653;SDS011;70277;54.302;10.064;2023-06-04T14:40:26;6.65;;;1.90;;
3653;SDS011;70277;54.302;10.064;2023-06-04T14:42:52;11.90;;;2.20;;
3653;SDS011;70277;54.302;10.064;2023-06-04T14:45:19;7.80;;;2.28;;
3653;SDS011;70277;54.302;10.064;2023-06-04T14:47:45;7.28;;;2.13;;
3653;SDS011;70277;54.302;10.064;2023-06-04T14:50:15;7.43;;;2.75;;
3653;SDS011;70277;54.302;10.064;2023-06-04T14:52:41;8.07;;;2.42;;
3653;SDS011;70277;54.302;10.064;2023-06-04T14:55:08;11.50;;;2.50;;